No particular awareness of the weather is required.    There are no Weather-warnings


Meteo18 Weather Cam more information Meteo18 Weather Cam


Thunder radar more information blitzortung!


Rain radar more information rain snow radar


Visit our other weather sites:

Template documentation
and downloads

And another site



Weather Underground History page Text

Daily Summary for September 30, 2017 Units:  English    Metric   Both
« Previous Day
Next Day »
Daily Weekly Monthly Yearly Custom
  High: Low: Average:
Temperature: 64.2 °F 48.7 °F 58.3 °F
Dew Point: 60.8 °F 46.8 °F 53.8 °F
Humidity: 96 % 62 % 85 %
Wind Speed: 10 mph 0 mph 1.6 mph
Wind Gust: 17 mph - -
Wind:- - West
Pressure: 30.2 in 30.1 in -
Precipitation: 0.44 in    
Historical Graphs
 
 
Tabular Data for September 30, 2017
Time Temperature Dew Point Pressure Wind Wind Speed Wind Gust Humidity Rainfall Rate (Hourly)
00:02 62.4 °F 58.5 °F 30.1 in WNW 2 mph 2 mph 87 % 0 in
00:12 63 °F 58.6 °F 30.1 in Calm   3 mph 86 % 0 in
00:17 63.1 °F 58.8 °F 30.1 in WNW 1 mph 3 mph 86 % 0 in
00:22 63.7 °F 58.8 °F 30.1 in North 1 mph 3 mph 84 % 0 in
00:32 64 °F 58.8 °F 30.1 in NNE 1 mph 2 mph 83 % 0 in
00:42 63.9 °F 58.6 °F 30.1 in Calm   2 mph 83 % 0 in
00:52 64.2 °F 58.6 °F 30.1 in Calm   1 mph 82 % 0 in
00:57 63.9 °F 58.6 °F 30.1 in Calm     83 % 0 in
01:02 63.9 °F 58.6 °F 30.1 in Calm   1 mph 83 % 0 in
01:12 63.1 °F 58.3 °F 30.1 in Calm   1 mph 84 % 0 in
01:17 62.8 °F 58.3 °F 30.1 in Calm   1 mph 85 % 0 in
01:22 62.4 °F 58.1 °F 30.1 in Calm     86 % 0 in
01:32 62.2 °F 58.3 °F 30.1 in Calm   1 mph 87 % 0 in
01:42 62.1 °F 58.5 °F 30.1 in Calm   1 mph 88 % 0 in
01:47 62.1 °F 58.5 °F 30.1 in Calm   2 mph 88 % 0 in
01:52 62.1 °F 58.5 °F 30.1 in Calm   2 mph 88 % 0 in
01:57 62.4 °F 58.8 °F 30.1 in Calm   2 mph 88 % 0 in
02:02 62.4 °F 58.8 °F 30.1 in Calm   1 mph 88 % 0 in
02:12 62.4 °F 59.2 °F 30.1 in Calm   1 mph 89 % 0 in
02:17 62.4 °F 59.2 °F 30.1 in Calm   1 mph 89 % 0 in
02:22 62.6 °F 59.5 °F 30.1 in NW 1 mph 1 mph 90 % 0 in
02:32 63.3 °F 60.3 °F 30.1 in WNW 4 mph 8 mph 90 % 0 in
02:42 63.5 °F 60.4 °F 30.1 in WNW 5 mph 10 mph 90 % 0 in
02:52 63.7 °F 60.6 °F 30.1 in NW 1 mph 9 mph 90 % 0 in
02:57 63.7 °F 60.6 °F 30.1 in WNW 2 mph 9 mph 90 % 0 in
03:02 63.9 °F 60.8 °F 30.1 in WNW 3 mph 10 mph 90 % 0 in
03:12 63.9 °F 60.6 °F 30.1 in WNW 4 mph 10 mph 89 % 0 in
03:17 63.7 °F 60.4 °F 30.1 in North 4 mph 9 mph 89 % 0 in
03:27 63.5 °F 60.3 °F 30.1 in WNW 2 mph 9 mph 89 % 0 in
03:32 63.5 °F 60.3 °F 30.1 in NW 2 mph 8 mph 89 % 0 in
03:42 63.3 °F 59.7 °F 30.1 in Calm   7 mph 88 % 0 in
03:52 63.1 °F 59.5 °F 30.1 in WNW 1 mph 6 mph 88 % 0 in
03:57 63.1 °F 59.5 °F 30.1 in WNW 3 mph 6 mph 88 % 0 in
04:02 63 °F 59.7 °F 30.1 in NW 4 mph 6 mph 89 % 0 in
04:12 62.1 °F 59.4 °F 30.1 in WNW 1 mph 6 mph 91 % 0.02 in
04:17 61.9 °F 59.2 °F 30.1 in Calm   6 mph 91 % 0.02 in
04:22 61.9 °F 59.5 °F 30.1 in NNW 1 mph 5 mph 92 % 0.02 in
04:27 61.5 °F 59.2 °F 30.1 in NW 1 mph 4 mph 92 % 0.02 in
04:32 61.5 °F 59.5 °F 30.1 in NW 1 mph 2 mph 93 % 0.02 in
04:37 61.5 °F 59.5 °F 30.1 in Calm   2 mph 93 % 0.02 in
04:42 61.3 °F 59.4 °F 30.1 in Calm   3 mph 93 % 0.02 in
04:47 61.3 °F 59.4 °F 30.1 in West 2 mph 3 mph 93 % 0.02 in
04:52 61.3 °F 59.4 °F 30.1 in Calm   3 mph 93 % 0.02 in
05:12 61.2 °F 59.4 °F 30.1 in NW 2 mph 7 mph 94 % 0.02 in
05:17 61 °F 59.2 °F 30.1 in North 1 mph 7 mph 94 % 0.02 in
05:22 61 °F 59.2 °F 30.1 in Calm   9 mph 94 % 0.1 in
05:32 60.6 °F 58.8 °F 30.1 in Calm   5 mph 94 % 0.12 in
05:37 60.6 °F 58.8 °F 30.1 in Calm   5 mph 94 % 0.12 in
05:42 60.6 °F 58.8 °F 30.1 in WNW 2 mph 4 mph 94 % 0.14 in
05:52 60.4 °F 58.6 °F 30.1 in Calm   3 mph 94 % 0.15 in
05:57 60.4 °F 58.6 °F 30.1 in SW 1 mph 3 mph 94 % 0.15 in
06:02 60.4 °F 58.6 °F 30.1 in West 3 mph 3 mph 94 % 0.16 in
06:12 60.3 °F 58.5 °F 30.1 in WNW 2 mph 4 mph 94 % 0.14 in
06:17 60.3 °F 58.5 °F 30.1 in West 1 mph 4 mph 94 % 0.14 in
06:22 60.3 °F 58.5 °F 30.1 in Calm   4 mph 94 % 0.08 in
06:32 60.1 °F 58.3 °F 30.1 in Calm   4 mph 94 % 0.08 in
06:42 60.1 °F 58.3 °F 30.1 in WNW 2 mph 3 mph 94 % 0.05 in
06:47 59.9 °F 58.1 °F 30.1 in WNW 1 mph 3 mph 94 % 0.05 in
06:52 59.7 °F 57.9 °F 30.1 in West 2 mph 4 mph 94 % 0.05 in
07:02 59.5 °F 57.7 °F 30.1 in Calm   4 mph 94 % 0.05 in
07:07 59.5 °F 57.7 °F 30.1 in WNW 3 mph 4 mph 94 % 0.05 in
07:12 59.5 °F 57.7 °F 30.1 in WNW 2 mph 5 mph 94 % 0.05 in
07:17 59.5 °F 58.1 °F 30.1 in WSW 1 mph 5 mph 95 % 0.05 in
07:22 59.4 °F 57.9 °F 30.1 in NW 2 mph 7 mph 95 % 0.04 in
07:32 57.7 °F 55.8 °F 30.1 in WNW 3 mph 17 mph 93 % 0.05 in
07:42 57 °F 55.2 °F 30.1 in North 3 mph 17 mph 94 % 0.04 in
07:47 56.8 °F 55.2 °F 30.1 in NW 10 mph 17 mph 94 % 0.04 in
07:52 56.5 °F 54.9 °F 30.1 in NNW 3 mph 11 mph 94 % 0.04 in
07:57 56.1 °F 54.5 °F 30.1 in WNW 4 mph 11 mph 94 % 0.04 in
08:02 56.1 °F 54.7 °F 30.1 in NW 6 mph 11 mph 95 % 0.04 in
08:12 55.8 °F 54.3 °F 30.2 in NNW 2 mph 10 mph 95 % 0.04 in
08:17 55.6 °F 54.1 °F 30.2 in NW 9 mph 10 mph 95 % 0.04 in
08:22 55.6 °F 54.1 °F 30.2 in Calm   12 mph 95 % 0.05 in
08:27 55.2 °F 53.8 °F 30.2 in WNW 10 mph 12 mph 95 % 0.05 in
08:32 55 °F 53.6 °F 30.2 in NNW 3 mph 12 mph 95 % 0.06 in
08:42 54.9 °F 53.4 °F 30.2 in NNW 2 mph 12 mph 95 % 0.07 in
08:52 54.7 °F 53.2 °F 30.2 in WNW 5 mph 11 mph 95 % 0.08 in
08:57 54.7 °F 53.6 °F 30.2 in NNW 4 mph 11 mph 96 % 0.08 in
09:02 54.7 °F 53.6 °F 30.2 in NNW 3 mph 10 mph 96 % 0.08 in
09:12 54.7 °F 53.6 °F 30.2 in NW 3 mph 8 mph 96 % 0.08 in
09:22 54.7 °F 53.6 °F 30.2 in WNW 3 mph 8 mph 96 % 0.07 in
09:32 54.7 °F 53.6 °F 30.2 in NNW 2 mph 8 mph 96 % 0.06 in
09:42 54.7 °F 53.6 °F 30.2 in NNW 2 mph 6 mph 96 % 0.06 in
09:52 54.7 °F 53.6 °F 30.2 in NW 1 mph 8 mph 96 % 0.04 in
10:02 54.5 °F 53.4 °F 30.2 in North 2 mph 8 mph 96 % 0.04 in
10:12 54.3 °F 53.2 °F 30.2 in NNE 3 mph 9 mph 96 % 0.04 in
10:17 54.5 °F 53.4 °F 30.2 in NNE 1 mph 9 mph 96 % 0.04 in
10:22 54.5 °F 53.4 °F 30.2 in North 1 mph 6 mph 96 % 0.05 in
10:32 54.5 °F 53.4 °F 30.2 in Calm   4 mph 96 % 0.06 in
10:42 54.7 °F 53.6 °F 30.2 in Calm   4 mph 96 % 0.06 in
10:47 54.7 °F 53.6 °F 30.2 in Calm   4 mph 96 % 0.06 in
10:52 54.9 °F 53.8 °F 30.2 in Calm   1 mph 96 % 0.06 in
11:02 54.9 °F 53.8 °F 30.2 in WNW 1 mph 1 mph 96 % 0.06 in
11:12 55 °F 54 °F 30.2 in WNW 1 mph 4 mph 96 % 0.05 in
11:22 55.2 °F 54.1 °F 30.2 in NW 2 mph 6 mph 96 % 0.02 in
11:32 55.8 °F 54.3 °F 30.2 in WNW 3 mph 6 mph 95 % 0.02 in
11:42 55.6 °F 54.1 °F 30.2 in Calm   4 mph 95 % 0 in
11:47 55.6 °F 54 °F 30.2 in West 1 mph 4 mph 94 % 0 in
11:52 55.8 °F 54.3 °F 30.2 in Calm   4 mph 95 % 0 in
12:02 56.1 °F 54.7 °F 30.2 in West 3 mph 4 mph 95 % 0 in
12:12 56.7 °F 55 °F 30.2 in Calm   4 mph 94 % 0 in
12:17 56.8 °F 54.5 °F 30.2 in WNW 5 mph 5 mph 92 % 0 in
12:22 57 °F 55 °F 30.2 in Calm   6 mph 93 % 0 in
12:32 57.6 °F 55 °F 30.2 in Calm   6 mph 91 % 0 in
12:42 57.6 °F 54 °F 30.2 in WSW 1 mph 7 mph 88 % 0 in
12:47 58.3 °F 54.5 °F 30.2 in Calm   7 mph 87 % 0 in
12:52 58.6 °F 53.8 °F 30.2 in Calm   4 mph 84 % 0 in
13:02 59.5 °F 52.7 °F 30.2 in Calm   4 mph 78 % 0 in
13:07 60.1 °F 52.9 °F 30.2 in Calm   4 mph 77 % 0 in
13:17 61.3 °F 53.4 °F 30.2 in SW 2 mph 3 mph 75 % 0 in
13:22 61.2 °F 52 °F 30.2 in SSW 3 mph 6 mph 72 % 0 in
13:32 61.2 °F 52.5 °F 30.2 in SW 1 mph 6 mph 73 % 0 in
13:42 61.2 °F 52.5 °F 30.2 in WSW 3 mph 5 mph 73 % 0 in
13:47 61 °F 52 °F 30.2 in West 2 mph 5 mph 72 % 0 in
13:52 61 °F 52.3 °F 30.2 in SW 3 mph 6 mph 73 % 0 in
14:02 61.2 °F 50.9 °F 30.2 in WNW 7 mph 8 mph 69 % 0 in
14:12 61 °F 50 °F 30.2 in WNW 4 mph 10 mph 67 % 0 in
14:17 60.8 °F 50.2 °F 30.2 in WNW 4 mph 10 mph 68 % 0 in
14:22 60.6 °F 50.7 °F 30.2 in Calm   10 mph 70 % 0 in
14:32 60.4 °F 51.4 °F 30.2 in WNW 2 mph 10 mph 72 % 0 in
14:42 59.9 °F 50.5 °F 30.2 in West 6 mph 7 mph 71 % 0 in
14:47 59.7 °F 50.7 °F 30.2 in WSW 3 mph 7 mph 72 % 0 in
14:52 60.1 °F 50.7 °F 30.2 in West 5 mph 10 mph 71 % 0 in
14:57 60.6 °F 52.3 °F 30.2 in West 2 mph 10 mph 74 % 0 in
15:02 60.6 °F 52 °F 30.2 in West 4 mph 7 mph 73 % 0 in
15:12 61.2 °F 51.3 °F 30.2 in West 4 mph 11 mph 70 % 0 in
15:17 61 °F 51.4 °F 30.2 in NW 2 mph 11 mph 71 % 0 in
15:22 61.5 °F 52 °F 30.2 in WSW 4 mph 10 mph 71 % 0 in
15:32 61.2 °F 51.3 °F 30.2 in SW 3 mph 12 mph 70 % 0 in
15:37 61.2 °F 51.3 °F 30.2 in WSW 6 mph 12 mph 70 % 0 in
15:42 61.7 °F 51.4 °F 30.2 in West 3 mph 13 mph 69 % 0 in
15:47 61.9 °F 50.4 °F 30.2 in West 6 mph 13 mph 66 % 0 in
15:52 62.1 °F 50.5 °F 30.2 in WSW 5 mph 13 mph 66 % 0 in
15:57 62.2 °F 50 °F 30.2 in Calm   13 mph 64 % 0 in
16:02 62.4 °F 50.9 °F 30.2 in West 6 mph 11 mph 66 % 0 in
16:12 62.1 °F 49.3 °F 30.1 in WNW 9 mph 9 mph 63 % 0 in
16:17 61.9 °F 48.7 °F 30.2 in West 4 mph 9 mph 62 % 0 in
16:22 61.9 °F 49.6 °F 30.2 in NW 3 mph 9 mph 64 % 0 in
16:32 62.4 °F 49.6 °F 30.2 in NW 3 mph 9 mph 63 % 0 in
16:42 62.4 °F 50 °F 30.2 in WNW 10 mph 10 mph 64 % 0 in
16:47 63.1 °F 50.7 °F 30.2 in West 4 mph 10 mph 64 % 0 in
16:52 62.8 °F 50 °F 30.2 in West 3 mph 10 mph 63 % 0 in
16:57 62.8 °F 50 °F 30.2 in NW 3 mph 10 mph 63 % 0 in
17:02 62.8 °F 50.9 °F 30.2 in West 2 mph 10 mph 65 % 0 in
17:12 62.8 °F 49.6 °F 30.2 in WNW 5 mph 10 mph 62 % 0 in
17:17 62.2 °F 50 °F 30.2 in NW 2 mph 9 mph 64 % 0 in
17:22 62.1 °F 50.5 °F 30.2 in NW 3 mph 12 mph 66 % 0 in
17:32 61.5 °F 49.6 °F 30.2 in NW 6 mph 12 mph 65 % 0 in
17:42 61.3 °F 49.8 °F 30.2 in WNW 2 mph 9 mph 66 % 0 in
17:47 61.2 °F 49.6 °F 30.2 in Calm   7 mph 66 % 0 in
17:57 60.6 °F 49.6 °F 30.2 in Calm   5 mph 67 % 0 in
18:02 60.4 °F 49.8 °F 30.2 in WNW 1 mph 4 mph 68 % 0 in
18:12 60.1 °F 50.2 °F 30.2 in WNW 1 mph 3 mph 70 % 0 in
18:17 60.1 °F 50.2 °F 30.2 in Calm   3 mph 70 % 0 in
18:22 60.1 °F 50.2 °F 30.2 in West 1 mph 3 mph 70 % 0 in
18:32 60.1 °F 50.2 °F 30.2 in West 3 mph 3 mph 70 % 0 in
18:37 60.1 °F 50.2 °F 30.2 in Calm   4 mph 70 % 0 in
18:42 60.1 °F 50.7 °F 30.2 in West 1 mph 4 mph 71 % 0 in
18:52 60.6 °F 51.6 °F 30.2 in Calm   4 mph 72 % 0 in
18:57 61.2 °F 52.9 °F 30.2 in Calm   3 mph 74 % 0 in
19:02 61 °F 51.4 °F 30.2 in WNW 2 mph 3 mph 71 % 0 in
19:12 59.9 °F 51.3 °F 30.2 in Calm   2 mph 73 % 0 in
19:17 59.4 °F 51.4 °F 30.2 in West 1 mph 3 mph 75 % 0 in
19:22 58.6 °F 51.4 °F 30.2 in Calm   3 mph 77 % 0 in
19:32 57.4 °F 50.9 °F 30.2 in Calm   3 mph 79 % 0 in
19:37 57 °F 51.3 °F 30.2 in Calm   3 mph 81 % 0 in
19:42 56.7 °F 51.6 °F 30.2 in Calm   3 mph 83 % 0 in
19:47 56.1 °F 51.6 °F 30.2 in Calm   1 mph 85 % 0 in
19:52 55.6 °F 51.4 °F 30.2 in Calm     86 % 0 in
20:02 54.9 °F 51.4 °F 30.2 in Calm   1 mph 88 % 0 in
20:12 54.1 °F 50.9 °F 30.2 in Calm   1 mph 89 % 0 in
20:17 54 °F 51.1 °F 30.2 in Calm   1 mph 90 % 0 in
20:22 53.8 °F 50.9 °F 30.2 in Calm   1 mph 90 % 0 in
20:27 53.6 °F 50.7 °F 30.2 in Calm   1 mph 90 % 0 in
20:32 53.4 °F 50.2 °F 30.2 in Calm   1 mph 89 % 0 in
20:42 53.1 °F 49.8 °F 30.2 in Calm   1 mph 89 % 0 in
20:47 53.1 °F 50.2 °F 30.2 in Calm   1 mph 90 % 0 in
20:52 52.9 °F 50 °F 30.2 in Calm   1 mph 90 % 0 in
20:57 52.9 °F 50.4 °F 30.2 in Calm   1 mph 91 % 0 in
21:02 52.5 °F 50 °F 30.2 in Calm   1 mph 91 % 0 in
21:07 52.3 °F 49.8 °F 30.2 in Calm     91 % 0 in
21:12 52.2 °F 49.6 °F 30.2 in Calm     91 % 0 in
21:17 52.3 °F 50 °F 30.2 in Calm     92 % 0 in
21:22 52.5 °F 50 °F 30.2 in Calm   1 mph 91 % 0 in
21:27 52.3 °F 49.5 °F 30.2 in Calm   1 mph 90 % 0 in
21:32 52 °F 49.5 °F 30.2 in Calm   1 mph 91 % 0 in
21:37 51.8 °F 49.3 °F 30.2 in Calm   1 mph 91 % 0 in
21:47 52.2 °F 49.8 °F 30.2 in Calm   1 mph 92 % 0 in
21:52 52 °F 49.5 °F 30.2 in Calm   1 mph 91 % 0 in
21:57 51.6 °F 49.1 °F 30.2 in Calm     91 % 0 in
22:02 51.4 °F 49.3 °F 30.2 in Calm     92 % 0 in
22:12 51.3 °F 49.1 °F 30.2 in Calm     92 % 0 in
22:17 51.1 °F 48.9 °F 30.2 in Calm     92 % 0 in
22:22 50.9 °F 48.7 °F 30.2 in Calm   1 mph 92 % 0 in
22:32 50.9 °F 48.9 °F 30.2 in Calm   1 mph 93 % 0 in
22:42 50.7 °F 48.6 °F 30.2 in Calm   1 mph 92 % 0 in
22:47 50.7 °F 48.6 °F 30.2 in Calm   1 mph 92 % 0 in
22:52 50.5 °F 48.4 °F 30.2 in Calm   1 mph 92 % 0 in
22:57 50.4 °F 48.2 °F 30.2 in Calm   1 mph 92 % 0 in
23:02 50.4 °F 48.4 °F 30.2 in Calm   1 mph 93 % 0 in
23:12 50 °F 48 °F 30.2 in Calm   1 mph 93 % 0 in
23:17 50.2 °F 48.2 °F 30.2 in Calm   1 mph 93 % 0 in
23:22 50.2 °F 48.2 °F 30.2 in Calm   1 mph 93 % 0 in
23:27 50.2 °F 48.2 °F 30.2 in Calm   1 mph 93 % 0 in
23:32 50.2 °F 48.2 °F 30.2 in Calm   1 mph 93 % 0 in
23:42 49.6 °F 47.7 °F 30.2 in Calm     93 % 0 in
23:47 49.5 °F 47.5 °F 30.2 in Calm     93 % 0 in
23:52 49.1 °F 47.1 °F 30.2 in Calm   1 mph 93 % 0 in
23:57 48.7 °F 46.8 °F 30.2 in Calm   1 mph 93 % 0 in
Meteo18
Compliments of Weather Underground - 4 mb

Script developed by  Jim McMurry - jmcmurry@mwt.net Adapted for the template by  Wim van der Kuil - Leuven-Template.eu

You find our weather info also at:

European Weather Network

Weather Underground

Equipment we use:

Weather-station
Davis Vue

Weather-program
Meteohub

Weather-server
Raspberry PI 2 B+

Provider
1 and 1

Davis Vue

Meteohub

Raspberry PI 2 B+

1 and 1